Sunday, October 22, 2017, 8:40 PM EDT
Back to Local

KFOK, The Gabreski Airport

Location: East Quogue, NY, United States Lat: 40.85
Local Time: 8:40 PM EDT ( 0:40 GMT) Lon: -72.617
Time Zone: US/Eastern Elev: 65 ft

Show me the last for .
Show Decoded

2017-10-22 20:12 METAR KFOK 230012Z 00000KT 9SM CLR 10/08 A3040 RMK AO2 T01000078 =
2017-10-22 20:05 METAR KFOK 230005Z 00000KT 2SM BR CLR 10/08 A3040 RMK AO2 T01000083 =
2017-10-22 19:53 METAR KFOK 222353Z 00000KT 3/4SM BR CLR 10/08 A3040 RMK AO2 SLP295 T01000083
                 10222 20094 53002 =
2017-10-22 19:32 METAR KFOK 222332Z 00000KT 1 1/2SM BR CLR 10/08 A3040 RMK AO2 T01000083 =
2017-10-22 18:53 METAR KFOK 222253Z 00000KT 10SM CLR 12/09 A3040 RMK AO2 SLP294 T01170094 =
2017-10-22 17:53 METAR KFOK 222153Z 00000KT 10SM CLR 17/12 A3039 RMK AO2 SLP292 T01670117 =
2017-10-22 16:53 METAR KFOK 222053Z 21006KT 10SM CLR 19/11 A3039 RMK AO2 SLP292 T01940111 56004 =
2017-10-22 15:53 METAR KFOK 221953Z 22005KT 10SM CLR 20/11 A3040 RMK AO2 SLP293 T02000111 =
2017-10-22 14:53 METAR KFOK 221853Z VRB06KT 10SM CLR 22/09 A3040 RMK AO2 SLP293 T02220094 =
2017-10-22 13:53 METAR KFOK 221753Z 22007KT 10SM CLR 22/12 A3041 RMK AO2 SLP296 T02170122 10228
                 20056 58008 =
2017-10-22 12:53 METAR KFOK 221653Z 19006KT 10SM CLR 21/13 A3042 RMK AO2 SLP300 T02110128 =
2017-10-22 11:53 METAR KFOK 221553Z 16005KT 10SM CLR 22/11 A3042 RMK AO2 SLP301 T02170111 =
2017-10-22 10:53 METAR KFOK 221453Z 00000KT 10SM CLR 21/11 A3043 RMK AO2 SLP305 T02110106 50004 =
2017-10-22 09:53 METAR KFOK 221353Z 00000KT 10SM CLR 19/12 A3044 RMK AO2 SLP307 T01890122 =
2017-10-22 08:53 METAR KFOK 221253Z 00000KT 10SM CLR 13/11 A3043 RMK AO2 SLP305 T01330111 =
2017-10-22 07:53 METAR KFOK 221153Z 00000KT 10SM CLR 06/04 A3042 RMK AO2 SLP301 T00560044 10061
                 20033 53015 =
2017-10-22 06:53 METAR KFOK 221053Z AUTO 00000KT 10SM CLR 03/02 A3040 RMK AO2 SLP295 T00330022 =
2017-10-22 05:53 METAR KFOK 220953Z AUTO 00000KT 10SM CLR 04/03 A3039 RMK AO2 SLP290 T00440028 =
2017-10-22 04:53 METAR KFOK 220853Z AUTO 00000KT 10SM CLR 04/03 A3037 RMK AO2 SLP285 T00440033
                 53001 =
2017-10-22 03:53 METAR KFOK 220753Z AUTO 00000KT 10SM CLR 04/04 A3037 RMK AO2 SLP283 T00440039 =
2017-10-22 03:09 METAR KFOK 220709Z AUTO 00000KT 5SM BR FEW002 04/04 A3037 RMK AO2 T00440039 =
2017-10-22 03:02 METAR KFOK 220702Z AUTO 00000KT 2 1/2SM BR SCT002 05/04 A3037 RMK AO2 VIS 1V5
                 T00500044 =
2017-10-22 02:59 METAR KFOK 220659Z AUTO 00000KT 1SM BR VV002 05/04 A3037 RMK AO2 T00500044 =
2017-10-22 02:53 METAR KFOK 220653Z AUTO 00000KT 1/4SM FG VV002 05/04 A3037 RMK AO2 SLP284
                 T00500044 =
2017-10-22 02:39 METAR KFOK 220639Z AUTO 00000KT 1/4SM FG VV001 05/04 A3037 RMK AO2 T00500044 =
2017-10-22 02:31 METAR KFOK 220631Z AUTO 00000KT 3/4SM BR VV001 05/04 A3037 RMK AO2 T00500044 =
2017-10-22 02:20 METAR KFOK 220620Z AUTO 00000KT 2 1/2SM BR BKN001 06/05 A3037 RMK AO2 VIS 1/2V5
                 T00610050 =
2017-10-22 02:00 METAR KFOK 220600Z AUTO 00000KT 3SM BR OVC002 05/04 A3037 RMK AO2 T00500044 =
2017-10-22 01:56 METAR KFOK 220556Z AUTO 00000KT 1SM BR VV002 06/05 A3037 RMK AO2 VIS 1/2V5
                 T00560050 =
2017-10-22 01:53 METAR KFOK 220553Z AUTO 00000KT 1/2SM FG VV001 06/05 A3037 RMK AO2 SLP284
                 T00560050 10117 20056 54000 =
2017-10-22 00:53 METAR KFOK 220453Z AUTO 00000KT 1/4SM FG VV001 06/05 A3037 RMK AO2 SLP284
                 T00610050 402390044 =
2017-10-22 00:21 METAR KFOK 220421Z AUTO 00000KT 1/4SM FG VV001 06/05 A3037 RMK AO2 T00610050 =
2017-10-22 00:00 METAR KFOK 220400Z AUTO 00000KT 1/2SM FG VV001 06/05 A3037 RMK AO2 T00610050 =
2017-10-21 23:53 METAR KFOK 220353Z AUTO 00000KT 1/4SM FG VV001 07/05 A3037 RMK AO2 SLP284
                 T00670050 =
2017-10-21 23:51 METAR KFOK 220351Z AUTO 00000KT 1/4SM FG VV001 07/05 A3037 RMK AO2 =
2017-10-21 23:31 METAR KFOK 220331Z AUTO 00000KT 1/2SM FG VV001 07/05 A3037 RMK AO2 T00670050 =
2017-10-21 23:22 METAR KFOK 220322Z AUTO 00000KT 1/4SM FG VV001 07/06 A3037 RMK AO2 T00670056 =
2017-10-21 23:10 METAR KFOK 220310Z AUTO 00000KT 1/2SM FG VV001 07/05 A3037 RMK AO2 T00670050 =
2017-10-21 23:01 METAR KFOK 220301Z AUTO 00000KT 1SM BR VV001 07/05 A3038 RMK AO2 T00670050 =
2017-10-21 22:53 METAR KFOK 220253Z 00000KT 3/4SM BR VV002 07/06 A3038 RMK AO2 SLP285 T00720056
                 51006 =
2017-10-21 22:50 METAR KFOK 220250Z 00000KT 1 1/4SM HZ BKN002 08/05 A3038 RMK AO2 =
2017-10-21 21:53 METAR KFOK 220153Z 00000KT 5SM BR FEW002 08/06 A3038 RMK AO2 SLP285 T00830061 =
2017-10-21 21:39 METAR KFOK 220139Z 00000KT 3SM BR CLR 09/07 A3037 RMK AO2 T00890072 =
2017-10-21 21:35 METAR KFOK 220135Z 00000KT 3/4SM BR CLR 09/08 A3037 RMK AO2 T00940078 =
2017-10-21 21:29 METAR KFOK 220129Z 00000KT 1SM BR VV002 09/07 A3037 RMK AO2 T00940072 =
2017-10-21 21:26 METAR KFOK 220126Z 00000KT 2SM BR FEW002 09/07 A3037 RMK AO2 T00940072 =
2017-10-21 21:14 METAR KFOK 220114Z 00000KT 3SM HZ CLR 10/07 A3037 RMK AO2 T01000072 =
2017-10-21 21:04 METAR KFOK 220104Z 00000KT 1 3/4SM BR CLR 10/08 A3037 RMK AO2 T01000078 =
2017-10-21 20:53 METAR KFOK 220053Z 00000KT 6SM BR CLR 10/08 A3036 RMK AO2 SLP281 T01000078 =

Support USWX by starting your Amazon purchase here.